Time;durP1;ratioP1;P1;durP2;ratioP2;P2;SDS_P1;SDS_P2;PMS_P1;PMS_P2;Temp;Humidity;BMP_temperature;BMP_pressure;BME280_temperature;BME280_humidity;BME280_pressure;Samples;Min_cycle;Max_cycle;Signal;HPM_P1;HPM_P2
2024/02/03 00:01:42;;;;;;;8.80;5.00;;;7.80;99.90;;;;;;5031924;28;20177;-60
2024/02/03 00:04:07;;;;;;;9.90;4.77;;;7.70;99.90;;;;;;5048386;28;20266;-59
2024/02/03 00:06:33;;;;;;;12.73;5.33;;;7.80;99.90;;;;;;5038201;28;20191;-58
2024/02/03 00:08:59;;;;;;;8.33;4.77;;;7.80;99.90;;;;;;5028303;28;20247;-58
2024/02/03 00:11:24;;;;;;;10.00;4.50;;;7.80;99.90;;;;;;5036889;28;20176;-60
2024/02/03 00:13:50;;;;;;;12.60;5.40;;;7.80;99.90;;;;;;5021543;28;20679;-58
2024/02/03 00:16:16;;;;;;;10.03;4.57;;;7.70;99.90;;;;;;5040281;28;20184;-60
2024/02/03 00:18:42;;;;;;;9.27;4.57;;;7.70;99.90;;;;;;5047861;28;20199;-60
2024/02/03 00:21:08;;;;;;;9.50;5.03;;;7.80;99.90;;;;;;5044837;28;20182;-58
2024/02/03 00:23:34;;;;;;;7.17;3.83;;;7.70;99.90;;;;;;5024338;28;20231;-59
2024/02/03 00:25:59;;;;;;;8.00;3.93;;;7.70;99.90;;;;;;5030360;28;20577;-59
2024/02/03 00:28:25;;;;;;;7.90;4.47;;;7.70;99.90;;;;;;5034845;28;20204;-61
2024/02/03 00:30:50;;;;;;;9.00;4.90;;;7.70;99.90;;;;;;5052805;28;20183;-57
2024/02/03 00:33:16;;;;;;;7.37;4.23;;;7.70;99.90;;;;;;5052436;28;20286;-57
2024/02/03 00:35:42;;;;;;;8.47;4.23;;;7.70;99.90;;;;;;5052064;28;20209;-54
2024/02/03 00:38:08;;;;;;;6.67;3.60;;;7.70;99.90;;;;;;5027807;28;20180;-54
2024/02/03 00:40:33;;;;;;;6.43;3.93;;;7.70;99.90;;;;;;5044529;28;20194;-57
2024/02/03 00:42:59;;;;;;;7.40;3.97;;;7.70;99.90;;;;;;5043322;28;20691;-55
2024/02/03 00:45:25;;;;;;;7.40;4.37;;;7.70;99.90;;;;;;5051072;28;20182;-54
2024/02/03 00:47:50;;;;;;;5.20;3.43;;;7.70;99.90;;;;;;5027177;28;20594;-56
2024/02/03 00:50:16;;;;;;;8.30;3.93;;;7.70;99.90;;;;;;5035950;28;20201;-58
2024/02/03 00:52:42;;;;;;;7.67;4.10;;;7.70;99.90;;;;;;5011473;28;20205;-56
2024/02/03 00:55:09;;;;;;;6.67;3.67;;;7.70;99.90;;;;;;5015017;28;20572;-55
2024/02/03 00:57:35;;;;;;;6.97;3.80;;;7.60;99.90;;;;;;5039615;28;20190;-57
2024/02/03 01:00:03;;;;;;;6.53;4.03;;;7.70;99.90;;;;;;5012875;28;20256;-58
2024/02/03 01:02:28;;;;;;;6.30;3.47;;;7.70;99.90;;;;;;5024941;28;20258;-58
2024/02/03 01:04:54;;;;;;;6.60;3.87;;;7.70;99.90;;;;;;5043839;28;20226;-60
2024/02/03 01:07:19;;;;;;;6.43;3.70;;;7.80;99.90;;;;;;5042142;28;20210;-60
2024/02/03 01:09:45;;;;;;;8.47;4.13;;;7.80;99.90;;;;;;5034399;28;20199;-60
2024/02/03 01:12:11;;;;;;;6.50;3.80;;;7.80;99.90;;;;;;5034251;28;20561;-60
2024/02/03 01:14:39;;;;;;;6.50;3.77;;;7.80;99.90;;;;;;5045207;28;20183;-60
2024/02/03 01:17:05;;;;;;;7.13;3.30;;;7.80;99.90;;;;;;5039649;28;20198;-58
2024/02/03 01:19:31;;;;;;;7.63;3.80;;;7.80;99.90;;;;;;5045819;28;20291;-60
2024/02/03 01:21:57;;;;;;;5.73;3.37;;;7.70;99.90;;;;;;5022343;28;20188;-60
2024/02/03 01:24:22;;;;;;;5.63;3.27;;;7.70;99.90;;;;;;5034834;28;20183;-58
2024/02/03 01:26:48;;;;;;;6.10;3.50;;;7.70;99.90;;;;;;5042244;28;20197;-60
2024/02/03 01:29:13;;;;;;;5.73;3.43;;;7.70;99.90;;;;;;5015236;28;20287;-59
2024/02/03 01:31:39;;;;;;;7.43;4.00;;;7.70;99.90;;;;;;5039013;28;20700;-60
2024/02/03 01:34:05;;;;;;;6.73;4.10;;;7.80;99.90;;;;;;5045880;28;20301;-60
2024/02/03 01:36:31;;;;;;;7.63;3.90;;;7.80;99.90;;;;;;5019368;28;20187;-60
2024/02/03 01:38:56;;;;;;;9.17;4.27;;;7.80;99.90;;;;;;5041904;28;20198;-58
2024/02/03 01:41:22;;;;;;;7.43;4.00;;;7.80;99.90;;;;;;5035205;28;20184;-59
2024/02/03 01:43:48;;;;;;;7.53;4.30;;;7.70;99.90;;;;;;4996490;28;1080537;-60
2024/02/03 01:46:16;;;;;;;6.53;3.70;;;7.70;99.90;;;;;;5015845;28;20584;-61
2024/02/03 01:48:42;;;;;;;7.40;4.20;;;7.70;99.90;;;;;;5046046;28;20600;-60
2024/02/03 01:51:10;;;;;;;8.43;4.00;;;7.70;99.90;;;;;;5034905;28;20226;-60
2024/02/03 01:53:35;;;;;;;7.70;4.23;;;7.70;99.90;;;;;;5051356;28;20203;-60
2024/02/03 01:56:02;;;;;;;10.20;3.73;;;7.70;99.90;;;;;;5042486;28;20594;-60
2024/02/03 01:58:27;;;;;;;7.23;4.20;;;7.70;99.90;;;;;;5034673;28;20199;-60
2024/02/03 02:00:53;;;;;;;6.90;3.73;;;7.70;99.90;;;;;;5051042;28;20241;-57
2024/02/03 02:03:19;;;;;;;7.10;3.70;;;7.70;99.90;;;;;;5047851;28;20188;-56
2024/02/03 02:05:45;;;;;;;6.53;3.40;;;7.70;99.90;;;;;;5029172;28;20598;-55
2024/02/03 02:08:11;;;;;;;6.63;3.43;;;7.80;99.90;;;;;;5017861;28;20644;-56
2024/02/03 02:10:40;;;;;;;6.00;3.30;;;7.80;99.90;;;;;;5050885;28;20190;-56
2024/02/03 02:13:05;;;;;;;5.47;3.37;;;7.80;99.90;;;;;;5031933;28;20207;-57
2024/02/03 02:15:31;;;;;;;5.30;3.30;;;7.80;99.90;;;;;;5038980;28;20179;-56
2024/02/03 02:18:01;;;;;;;4.30;2.87;;;7.80;99.90;;;;;;5038464;28;20200;-57
2024/02/03 02:20:27;;;;;;;5.03;3.23;;;7.80;99.90;;;;;;5038871;28;20217;-56
2024/02/03 02:22:53;;;;;;;5.40;2.90;;;7.80;99.90;;;;;;5038636;28;20206;-58
2024/02/03 02:25:19;;;;;;;5.27;3.07;;;7.70;99.90;;;;;;5043934;28;20652;-57
2024/02/03 02:27:44;;;;;;;5.87;2.93;;;7.70;99.90;;;;;;5010260;28;20242;-56
2024/02/03 02:30:13;;;;;;;5.20;2.90;;;7.80;99.90;;;;;;5022709;28;20208;-56
2024/02/03 02:32:39;;;;;;;5.00;2.73;;;7.80;99.90;;;;;;5022204;28;20246;-56
2024/02/03 02:35:04;;;;;;;4.70;2.50;;;7.80;99.90;;;;;;5021048;28;20235;-58
2024/02/03 02:37:30;;;;;;;4.27;2.20;;;7.80;99.90;;;;;;5045168;28;20195;-57
2024/02/03 02:39:56;;;;;;;3.73;2.50;;;7.90;99.90;;;;;;5013730;28;20196;-57
2024/02/03 02:42:22;;;;;;;5.27;2.20;;;7.90;99.90;;;;;;5038429;28;20197;-56
2024/02/03 02:44:48;;;;;;;4.63;2.10;;;7.90;99.90;;;;;;5027675;28;20187;-55
2024/02/03 02:47:14;;;;;;;4.17;2.20;;;7.90;99.90;;;;;;5046950;28;20678;-54
2024/02/03 02:49:39;;;;;;;4.37;2.10;;;7.80;99.90;;;;;;5021993;28;20209;-58
2024/02/03 02:52:05;;;;;;;3.30;2.03;;;7.90;99.90;;;;;;5045292;28;20214;-56
2024/02/03 02:54:31;;;;;;;3.67;1.90;;;7.90;99.90;;;;;;5027279;28;20582;-57
2024/02/03 02:56:56;;;;;;;4.13;2.10;;;7.80;99.90;;;;;;5043179;28;20179;-58
2024/02/03 02:59:22;;;;;;;3.23;2.00;;;7.80;99.90;;;;;;5038312;28;20200;-55
2024/02/03 03:01:47;;;;;;;4.37;2.10;;;7.80;99.90;;;;;;5036966;28;20187;-56
2024/02/03 03:04:13;;;;;;;3.77;1.70;;;7.90;99.90;;;;;;5049910;28;20213;-58
2024/02/03 03:06:39;;;;;;;4.40;1.70;;;7.90;99.90;;;;;;5043055;28;20606;-55
2024/02/03 03:09:04;;;;;;;3.70;1.80;;;8.00;99.90;;;;;;5037827;28;20670;-56
2024/02/03 03:11:30;;;;;;;3.37;1.47;;;8.00;99.90;;;;;;5026324;28;20197;-60
2024/02/03 03:13:56;;;;;;;2.97;1.70;;;7.90;99.90;;;;;;5016860;28;20553;-57
2024/02/03 03:16:24;;;;;;;2.40;1.40;;;7.90;99.90;;;;;;5029166;28;20207;-56
2024/02/03 03:18:50;;;;;;;2.60;1.30;;;7.90;99.90;;;;;;5021418;28;20278;-58
2024/02/03 03:21:15;;;;;;;2.17;1.10;;;7.90;99.90;;;;;;5035262;28;20285;-57
2024/02/03 03:23:41;;;;;;;2.60;1.20;;;7.90;99.90;;;;;;5010437;28;20194;-59
2024/02/03 03:26:06;;;;;;;2.50;1.33;;;8.00;99.90;;;;;;5028190;28;20192;-56
2024/02/03 03:28:32;;;;;;;2.03;1.17;;;7.90;99.90;;;;;;5028257;28;20211;-59
2024/02/03 03:30:57;;;;;;;5.77;1.30;;;8.00;99.90;;;;;;5011847;28;20282;-56
2024/02/03 03:33:23;;;;;;;2.13;1.20;;;8.00;99.90;;;;;;5049355;28;20214;-56
2024/02/03 03:35:49;;;;;;;2.07;1.30;;;8.10;99.90;;;;;;5040689;28;20179;-58
2024/02/03 03:38:14;;;;;;;5.47;1.40;;;8.00;99.90;;;;;;5032780;28;20620;-55
2024/02/03 03:40:40;;;;;;;1.73;1.13;;;8.00;99.90;;;;;;5043388;28;20656;-53
2024/02/03 03:43:06;;;;;;;3.43;1.07;;;8.00;99.90;;;;;;5046641;28;20213;-53
2024/02/03 03:45:31;;;;;;;2.67;1.30;;;8.00;99.90;;;;;;5044435;28;20192;-57
2024/02/03 03:47:58;;;;;;;2.10;1.37;;;8.00;99.90;;;;;;5045321;28;20321;-60
2024/02/03 03:50:24;;;;;;;1.77;1.20;;;8.00;99.90;;;;;;5029695;28;20207;-60
2024/02/03 03:52:49;;;;;;;1.80;1.27;;;8.00;99.90;;;;;;5044985;28;20206;-60
2024/02/03 03:55:16;;;;;;;2.10;1.27;;;8.00;99.90;;;;;;5032565;28;20167;-60
2024/02/03 03:57:42;;;;;;;1.87;1.00;;;8.10;99.90;;;;;;5048787;28;20264;-60
2024/02/03 04:00:11;;;;;;;1.50;1.00;;;8.00;99.90;;;;;;5032713;28;20228;-59
2024/02/03 04:02:36;;;;;;;2.27;1.17;;;7.90;99.90;;;;;;5044072;28;20269;-60
2024/02/03 04:05:03;;;;;;;3.13;1.13;;;7.90;99.90;;;;;;5045857;28;20222;-60
2024/02/03 04:07:28;;;;;;;1.50;1.10;;;7.90;99.90;;;;;;5032912;28;20599;-59
2024/02/03 04:09:54;;;;;;;2.37;1.00;;;8.00;99.90;;;;;;5017454;28;20293;-59
2024/02/03 04:12:20;;;;;;;1.73;1.13;;;7.90;99.90;;;;;;5048588;28;20188;-60
2024/02/03 04:14:48;;;;;;;1.80;1.00;;;7.90;99.90;;;;;;5049195;28;20253;-57
2024/02/03 04:17:15;;;;;;;1.10;0.70;;;8.00;99.90;;;;;;5029782;28;20357;-59
2024/02/03 04:19:41;;;;;;;1.57;1.00;;;7.90;99.90;;;;;;5029048;28;20738;-60
2024/02/03 04:22:16;;;;;;;1.47;0.90;;;7.90;99.90;;;;;;5022477;28;20545;-59
2024/02/03 04:24:41;;;;;;;2.13;1.00;;;7.90;99.90;;;;;;5037185;28;20652;-60
2024/02/03 04:27:07;;;;;;;1.30;0.83;;;7.90;99.90;;;;;;5044149;28;20215;-59
2024/02/03 04:29:33;;;;;;;4.27;1.10;;;7.90;99.90;;;;;;5035900;28;20187;-58
2024/02/03 04:31:58;;;;;;;2.73;1.23;;;7.90;99.90;;;;;;5045667;28;20721;-59
2024/02/03 04:34:24;;;;;;;2.40;0.90;;;7.90;99.90;;;;;;5033488;28;20213;-60
2024/02/03 04:36:49;;;;;;;0.93;0.70;;;8.00;99.90;;;;;;5000305;28;20172;-59
2024/02/03 04:39:15;;;;;;;1.10;0.70;;;8.00;99.90;;;;;;5043247;28;20199;-59
2024/02/03 04:41:41;;;;;;;2.13;0.80;;;7.90;99.90;;;;;;5046714;28;20180;-60
2024/02/03 04:44:06;;;;;;;2.03;0.73;;;8.00;99.90;;;;;;5032272;28;20204;-60
2024/02/03 04:46:32;;;;;;;5.40;0.97;;;7.90;99.90;;;;;;5031875;28;20214;-59
2024/02/03 04:48:58;;;;;;;1.13;0.83;;;7.90;99.90;;;;;;5040774;28;20593;-59
2024/02/03 04:51:23;;;;;;;1.10;0.70;;;7.90;99.90;;;;;;5028046;28;20274;-59
2024/02/03 04:53:49;;;;;;;1.30;0.80;;;7.90;99.90;;;;;;5045247;28;20759;-60
2024/02/03 04:56:15;;;;;;;1.70;0.90;;;7.90;99.90;;;;;;5034141;28;20186;-60
2024/02/03 04:58:41;;;;;;;1.13;0.70;;;8.00;99.90;;;;;;5023841;28;20262;-61
2024/02/03 05:01:06;;;;;;;1.30;0.70;;;8.00;99.90;;;;;;5031383;28;20593;-59
2024/02/03 05:03:32;;;;;;;2.23;0.80;;;8.00;99.90;;;;;;5052443;28;20202;-59
2024/02/03 05:06:05;;;;;;;3.43;0.83;;;8.00;99.90;;;;;;5035460;28;20189;-60
2024/02/03 05:08:36;;;;;;;1.43;0.80;;;8.00;99.90;;;;;;5043533;28;20224;-58
2024/02/03 05:11:02;;;;;;;1.30;0.80;;;7.90;99.90;;;;;;5045250;28;20179;-60
2024/02/03 05:13:28;;;;;;;0.93;0.70;;;8.00;99.90;;;;;;5028524;28;20706;-60
2024/02/03 05:15:53;;;;;;;2.57;0.70;;;8.00;99.90;;;;;;5019789;28;20185;-57
2024/02/03 05:18:21;;;;;;;1.60;0.90;;;8.00;99.90;;;;;;5034176;28;20281;-56
2024/02/03 05:20:46;;;;;;;1.77;1.00;;;8.00;99.90;;;;;;5033709;28;20175;-58
2024/02/03 05:23:12;;;;;;;2.13;1.10;;;7.90;99.90;;;;;;5007273;28;20656;-58
2024/02/03 05:25:37;;;;;;;2.13;1.13;;;8.00;99.90;;;;;;5044980;28;20236;-57
2024/02/03 05:28:03;;;;;;;3.27;1.07;;;8.00;99.90;;;;;;5034214;28;20231;-57
2024/02/03 05:30:29;;;;;;;2.53;1.07;;;8.00;99.90;;;;;;5044006;28;20214;-55
2024/02/03 05:32:54;;;;;;;1.67;1.10;;;8.00;99.90;;;;;;5035603;28;20215;-58
2024/02/03 05:35:20;;;;;;;2.00;1.20;;;7.90;99.90;;;;;;5034259;28;20175;-58
2024/02/03 05:37:45;;;;;;;2.23;1.30;;;8.00;99.90;;;;;;5045217;28;20541;-60
2024/02/03 05:40:11;;;;;;;2.93;1.47;;;8.10;99.90;;;;;;5041526;28;20653;-60
2024/02/03 05:42:37;;;;;;;3.23;1.43;;;8.10;99.90;;;;;;5034726;28;20203;-58
2024/02/03 05:45:02;;;;;;;2.60;1.33;;;8.10;99.90;;;;;;5034974;28;20191;-59
2024/02/03 05:47:28;;;;;;;3.87;1.30;;;8.10;99.90;;;;;;5037181;28;20186;-59
2024/02/03 05:49:54;;;;;;;2.30;1.20;;;8.00;99.90;;;;;;5038777;28;20203;-60
2024/02/03 05:52:19;;;;;;;4.63;1.30;;;8.00;99.90;;;;;;5040092;28;20211;-61
2024/02/03 05:54:47;;;;;;;2.10;1.30;;;8.00;99.90;;;;;;5023255;28;20179;-59
2024/02/03 05:57:13;;;;;;;4.43;3.07;;;8.10;99.90;;;;;;5014211;28;20173;-59
2024/02/03 05:59:42;;;;;;;2.40;1.70;;;8.10;99.90;;;;;;5023274;28;20226;-58
2024/02/03 06:02:08;;;;;;;2.63;1.73;;;8.10;99.90;;;;;;5031145;28;20260;-59
2024/02/03 06:04:33;;;;;;;5.17;3.20;;;8.10;99.90;;;;;;5039453;28;20208;-60
2024/02/03 06:06:59;;;;;;;3.27;1.87;;;8.10;99.90;;;;;;5030483;28;20199;-59
2024/02/03 06:09:25;;;;;;;4.13;1.70;;;8.00;99.90;;;;;;5042713;28;20195;-58
2024/02/03 06:11:51;;;;;;;2.70;1.63;;;8.10;99.90;;;;;;5016587;28;20718;-57
2024/02/03 06:14:17;;;;;;;3.47;2.03;;;8.00;99.90;;;;;;5037286;28;20320;-56
2024/02/03 06:16:42;;;;;;;4.50;1.90;;;8.10;99.90;;;;;;5030646;28;20654;-56
2024/02/03 06:19:08;;;;;;;3.07;1.80;;;8.10;99.90;;;;;;5023307;28;20640;-59
2024/02/03 06:21:33;;;;;;;2.33;1.53;;;8.10;99.90;;;;;;5039016;28;20191;-58
2024/02/03 06:23:59;;;;;;;3.77;1.90;;;8.10;99.90;;;;;;5030656;28;20183;-60
2024/02/03 06:26:30;;;;;;;3.67;2.13;;;8.10;99.90;;;;;;5038342;28;20639;-57
2024/02/03 06:28:55;;;;;;;3.20;1.83;;;8.00;99.90;;;;;;5014643;28;20200;-58
2024/02/03 06:31:21;;;;;;;3.40;1.70;;;8.10;99.90;;;;;;5038629;28;20190;-56
2024/02/03 06:33:47;;;;;;;2.10;1.40;;;8.10;99.90;;;;;;5045567;28;20203;-59
2024/02/03 06:36:12;;;;;;;3.43;1.57;;;8.10;99.90;;;;;;5013639;28;20203;-59
2024/02/03 06:38:38;;;;;;;2.80;1.57;;;8.10;99.90;;;;;;5014834;28;20671;-58
2024/02/03 06:41:03;;;;;;;2.37;1.60;;;8.20;99.90;;;;;;5030226;28;20201;-58
2024/02/03 06:43:29;;;;;;;3.37;2.00;;;8.20;99.90;;;;;;5027576;28;20700;-56
2024/02/03 06:45:54;;;;;;;3.00;1.80;;;8.20;99.90;;;;;;5042226;28;20206;-58
2024/02/03 06:48:20;;;;;;;3.00;1.80;;;8.20;99.90;;;;;;5034195;28;20232;-56
2024/02/03 06:50:48;;;;;;;4.17;1.80;;;8.20;99.90;;;;;;5033954;28;20183;-57
2024/02/03 06:53:14;;;;;;;3.20;1.80;;;8.30;99.90;;;;;;5033935;28;20212;-56
2024/02/03 06:55:40;;;;;;;4.47;2.37;;;8.30;99.90;;;;;;5027876;28;20172;-59
2024/02/03 06:58:05;;;;;;;3.30;1.50;;;8.30;99.90;;;;;;5036970;28;20667;-59
2024/02/03 07:00:31;;;;;;;2.23;1.60;;;8.20;99.90;;;;;;5026755;28;20196;-57
2024/02/03 07:02:57;;;;;;;3.63;1.97;;;8.30;99.90;;;;;;5027436;28;20191;-57
2024/02/03 07:05:22;;;;;;;2.63;1.60;;;8.30;99.90;;;;;;5010574;28;20184;-57
2024/02/03 07:07:48;;;;;;;3.30;1.53;;;8.30;99.90;;;;;;5010449;28;20185;-57
2024/02/03 07:10:13;;;;;;;2.20;1.43;;;8.40;99.90;;;;;;5037400;28;20207;-57
2024/02/03 07:12:39;;;;;;;2.53;1.70;;;8.30;99.90;;;;;;5034056;28;20676;-56
2024/02/03 07:15:05;;;;;;;2.57;1.50;;;8.40;99.90;;;;;;5025630;28;20195;-57
2024/02/03 07:17:31;;;;;;;3.03;0.97;;;8.30;99.90;;;;;;5041423;28;20176;-56
2024/02/03 07:19:57;;;;;;;3.53;1.30;;;8.40;99.90;;;;;;5036185;28;20339;-57
2024/02/03 07:22:22;;;;;;;2.30;1.20;;;8.30;99.90;;;;;;5042058;28;20556;-59
2024/02/03 07:24:48;;;;;;;2.67;1.60;;;8.40;99.90;;;;;;5042537;28;20498;-57
2024/02/03 07:27:14;;;;;;;4.70;2.30;;;8.40;99.90;;;;;;5036285;28;20311;-55
2024/02/03 07:29:41;;;;;;;5.07;2.47;;;8.40;99.90;;;;;;5023241;28;20199;-57
2024/02/03 07:32:06;;;;;;;4.40;1.70;;;8.40;99.90;;;;;;5043341;28;20552;-57
2024/02/03 07:34:32;;;;;;;5.77;2.03;;;8.50;99.90;;;;;;5044559;28;20230;-56
2024/02/03 07:36:57;;;;;;;2.03;1.33;;;8.50;99.90;;;;;;5012581;28;20218;-57
2024/02/03 07:39:23;;;;;;;3.93;1.77;;;8.50;99.90;;;;;;5025524;28;20243;-57
2024/02/03 07:41:49;;;;;;;3.47;1.30;;;8.50;99.90;;;;;;5038792;28;20171;-58
2024/02/03 07:44:14;;;;;;;1.40;1.03;;;8.60;99.90;;;;;;5044597;28;20187;-57
2024/02/03 07:46:40;;;;;;;2.90;1.57;;;8.60;99.90;;;;;;5025132;28;20208;-56
2024/02/03 07:49:06;;;;;;;4.10;0.87;;;8.60;99.90;;;;;;5009933;28;20259;-56
2024/02/03 07:51:32;;;;;;;3.53;0.90;;;8.70;99.90;;;;;;5036975;28;20226;-56
2024/02/03 07:53:58;;;;;;;2.80;0.93;;;8.60;99.90;;;;;;5029377;28;20216;-55
2024/02/03 07:56:23;;;;;;;1.77;1.00;;;8.60;99.90;;;;;;5013159;28;20182;-56
2024/02/03 07:58:51;;;;;;;4.47;0.97;;;8.60;99.90;;;;;;5018758;28;20750;-58
2024/02/03 08:01:20;;;;;;;1.60;0.93;;;8.60;99.90;;;;;;5033304;28;20258;-57
2024/02/03 08:03:45;;;;;;;1.30;1.00;;;8.60;99.90;;;;;;5037871;28;20182;-56
2024/02/03 08:06:11;;;;;;;1.87;1.03;;;8.60;99.90;;;;;;5048108;28;20194;-58
2024/02/03 08:08:36;;;;;;;2.00;0.90;;;8.60;99.90;;;;;;5043131;28;20210;-57
2024/02/03 08:11:02;;;;;;;2.10;0.80;;;8.80;99.90;;;;;;5045638;28;20232;-54
2024/02/03 08:13:28;;;;;;;2.50;0.90;;;8.80;99.90;;;;;;5051662;28;20195;-57
2024/02/03 08:15:53;;;;;;;2.10;0.60;;;8.80;99.90;;;;;;5046630;28;20236;-56
2024/02/03 08:18:19;;;;;;;1.13;0.67;;;8.90;99.90;;;;;;5027731;28;20184;-53
2024/02/03 08:20:44;;;;;;;1.07;0.60;;;8.90;99.90;;;;;;5038796;28;20801;-56
2024/02/03 08:23:10;;;;;;;0.90;0.73;;;8.90;99.90;;;;;;5033968;28;20183;-56
2024/02/03 08:25:36;;;;;;;1.00;0.77;;;9.00;99.90;;;;;;5046650;28;20188;-60
2024/02/03 08:28:02;;;;;;;2.37;1.30;;;9.00;99.90;;;;;;5040454;28;20186;-59
2024/02/03 08:30:28;;;;;;;2.17;0.90;;;9.00;99.90;;;;;;5043881;28;20248;-56
2024/02/03 08:32:53;;;;;;;1.23;0.70;;;9.00;99.90;;;;;;5021253;28;20299;-53
2024/02/03 08:35:19;;;;;;;2.30;1.30;;;9.00;99.90;;;;;;5050033;28;20669;-57
2024/02/03 08:37:45;;;;;;;4.63;1.03;;;9.10;99.90;;;;;;5051309;28;20278;-55
2024/02/03 08:40:12;;;;;;;3.17;0.70;;;9.10;99.90;;;;;;5018905;28;20216;-53
2024/02/03 08:42:38;;;;;;;1.60;0.47;;;9.10;99.90;;;;;;5051698;28;20191;-58
2024/02/03 08:45:04;;;;;;;0.73;0.47;;;9.00;99.90;;;;;;5051233;28;20530;-57
2024/02/03 08:47:29;;;;;;;1.80;0.60;;;9.00;99.90;;;;;;5035831;28;20191;-57
2024/02/03 08:49:56;;;;;;;1.27;0.60;;;9.10;99.90;;;;;;5020641;28;20200;-53
2024/02/03 08:52:22;;;;;;;0.87;0.50;;;9.00;99.90;;;;;;5047629;28;20194;-58
2024/02/03 08:54:48;;;;;;;0.90;0.50;;;9.00;99.90;;;;;;5038100;28;20191;-58
2024/02/03 08:57:13;;;;;;;0.90;0.60;;;9.10;99.90;;;;;;5042766;28;20176;-58
2024/02/03 08:59:39;;;;;;;1.20;0.70;;;9.10;99.90;;;;;;5046608;28;20282;-59
2024/02/03 09:02:05;;;;;;;2.23;0.80;;;9.10;99.90;;;;;;5048809;28;20206;-56
2024/02/03 09:04:30;;;;;;;2.23;1.53;;;9.10;99.90;;;;;;5025819;28;20180;-57
2024/02/03 09:06:56;;;;;;;2.10;0.90;;;9.00;99.90;;;;;;5019042;28;20214;-57
2024/02/03 09:09:22;;;;;;;1.47;0.70;;;9.10;99.90;;;;;;5042545;28;20211;-55
2024/02/03 09:11:47;;;;;;;1.53;0.77;;;9.10;99.90;;;;;;5043301;28;20179;-56
2024/02/03 09:14:13;;;;;;;1.80;1.20;;;9.20;99.90;;;;;;5026305;28;20645;-55
2024/02/03 09:16:38;;;;;;;3.67;0.87;;;9.20;99.90;;;;;;5029200;28;20188;-56
2024/02/03 09:19:04;;;;;;;0.93;0.67;;;9.30;99.90;;;;;;5032040;28;20215;-56
2024/02/03 09:21:29;;;;;;;2.00;1.00;;;9.30;99.90;;;;;;5035146;28;20204;-56
2024/02/03 09:23:55;;;;;;;2.70;1.50;;;9.40;99.90;;;;;;5026102;28;20222;-58
2024/02/03 09:26:21;;;;;;;0.50;0.50;;;9.60;99.90;;;;;;5039609;28;20188;-56
2024/02/03 09:28:46;;;;;;;1.73;0.60;;;9.60;99.90;;;;;;5024662;28;20572;-59
2024/02/03 09:31:19;;;;;;;1.27;0.70;;;9.60;99.90;;;;;;5014156;28;20195;-56
2024/02/03 09:33:45;;;;;;;0.80;0.60;;;9.50;99.90;;;;;;5034565;28;20221;-59
2024/02/03 09:36:11;;;;;;;0.57;0.43;;;9.50;99.90;;;;;;5042089;28;20249;-55
2024/02/03 09:38:37;;;;;;;1.10;0.90;;;9.50;99.90;;;;;;5024746;28;20212;-59
2024/02/03 09:41:03;;;;;;;1.40;0.93;;;9.60;99.90;;;;;;5027655;28;20192;-53
2024/02/03 09:43:29;;;;;;;1.90;0.80;;;9.60;99.90;;;;;;5046835;28;20663;-57
2024/02/03 09:45:55;;;;;;;1.50;0.47;;;9.60;99.90;;;;;;5023076;28;20192;-54
2024/02/03 09:48:23;;;;;;;1.17;0.70;;;9.60;99.90;;;;;;5035526;28;20698;-57
2024/02/03 09:50:49;;;;;;;1.40;1.00;;;9.60;99.90;;;;;;5040338;28;20187;-58
2024/02/03 09:53:15;;;;;;;1.17;0.60;;;9.70;99.90;;;;;;5038878;28;20218;-57
2024/02/03 09:55:41;;;;;;;1.37;0.53;;;9.70;99.90;;;;;;5010329;28;20188;-58
2024/02/03 09:58:07;;;;;;;0.87;0.60;;;9.70;99.90;;;;;;5020205;28;20176;-57
2024/02/03 10:00:34;;;;;;;1.13;0.50;;;9.80;99.90;;;;;;5042333;28;20202;-57
2024/02/03 10:02:59;;;;;;;1.00;0.50;;;9.70;99.90;;;;;;5042262;28;20201;-56
2024/02/03 10:05:29;;;;;;;0.73;0.55;;;9.60;99.90;;;;;;5033242;28;20795;-60
2024/02/03 10:08:05;;;;;;;1.90;0.70;;;9.60;99.90;;;;;;5034574;28;20207;-56
2024/02/03 10:10:33;;;;;;;2.40;1.10;;;9.70;99.90;;;;;;5030160;28;20624;-59
2024/02/03 10:13:11;;;;;;;0.50;0.40;;;9.60;99.90;;;;;;5022278;28;20209;-59
2024/02/03 10:15:38;;;;;;;1.03;0.80;;;9.60;99.90;;;;;;5019313;28;20255;-59
2024/02/03 10:18:08;;;;;;;1.77;1.00;;;9.60;99.90;;;;;;5033365;28;20236;-58
2024/02/03 10:20:34;;;;;;;1.63;0.70;;;9.60;99.90;;;;;;5034207;28;20184;-59
2024/02/03 10:22:59;;;;;;;1.03;0.70;;;9.60;99.90;;;;;;5034745;28;20168;-58
2024/02/03 10:25:29;;;;;;;0.90;0.50;;;9.60;99.90;;;;;;5020331;28;20266;-58
2024/02/03 10:28:00;;;;;;;1.07;0.60;;;9.60;99.90;;;;;;5031024;28;20180;-58
2024/02/03 10:30:30;;;;;;;0.70;0.50;;;9.70;99.90;;;;;;5015108;28;20195;-59
2024/02/03 10:33:01;;;;;;;0.83;0.57;;;9.60;99.90;;;;;;5049819;28;20206;-61
2024/02/03 10:35:28;;;;;;;1.43;0.97;;;9.70;99.90;;;;;;5032657;28;20261;-61
2024/02/03 10:37:58;;;;;;;1.77;0.90;;;9.60;99.90;;;;;;5019269;28;20187;-61
2024/02/03 10:40:32;;;;;;;2.30;1.50;;;9.50;99.90;;;;;;5030286;28;20199;-60
2024/02/03 10:42:58;;;;;;;2.97;1.47;;;9.60;99.90;;;;;;5022890;28;20227;-59
2024/02/03 10:45:31;;;;;;;0.90;0.70;;;9.60;99.90;;;;;;5034890;28;20263;-59
2024/02/03 10:48:03;;;;;;;0.53;0.40;;;9.60;99.90;;;;;;5000315;28;20191;-61
2024/02/03 10:50:39;;;;;;;0.90;0.60;;;9.60;99.90;;;;;;5030289;28;20253;-57
2024/02/03 10:53:29;;;;;;;1.00;0.40;;;9.60;99.90;;;;;;5038079;28;20332;-61
2024/02/03 10:56:00;;;;;;;1.33;0.60;;;9.60;99.90;;;;;;5036462;28;20250;-61
2024/02/03 10:58:28;;;;;;;1.40;0.57;;;9.50;99.90;;;;;;5029755;28;20183;-59
2024/02/03 11:00:56;;;;;;;5.50;4.03;;;9.60;99.90;;;;;;5045287;28;20716;-59
2024/02/03 11:03:22;;;;;;;1.33;1.00;;;9.60;99.90;;;;;;5035945;28;20309;-59
2024/02/03 11:05:52;;;;;;;0.73;0.50;;;9.70;99.90;;;;;;5029487;28;20767;-60
2024/02/03 11:08:19;;;;;;;1.37;0.90;;;9.70;99.90;;;;;;5048032;28;20682;-59
2024/02/03 11:10:49;;;;;;;0.97;0.50;;;9.70;99.90;;;;;;5026930;28;20184;-60
2024/02/03 11:13:16;;;;;;;2.30;0.80;;;9.80;99.90;;;;;;5030778;28;20210;-55
2024/02/03 11:15:44;;;;;;;3.33;2.17;;;9.80;99.90;;;;;;5048599;28;20639;-58
2024/02/03 11:18:14;;;;;;;1.73;0.80;;;9.80;99.90;;;;;;5032512;28;20185;-58
2024/02/03 11:20:40;;;;;;;2.00;1.23;;;9.90;99.90;;;;;;5038500;28;20531;-58
2024/02/03 11:23:13;;;;;;;2.47;1.10;;;10.00;99.90;;;;;;5034243;28;20270;-58
2024/02/03 11:25:46;;;;;;;2.10;1.00;;;10.10;99.90;;;;;;5041786;28;20270;-57
2024/02/03 11:28:12;;;;;;;3.50;1.50;;;10.20;99.90;;;;;;5047400;28;20189;-59
2024/02/03 11:30:38;;;;;;;2.93;1.60;;;10.20;99.90;;;;;;5028862;28;20258;-59
2024/02/03 11:33:08;;;;;;;2.13;1.20;;;10.10;99.90;;;;;;5024180;28;20357;-57
2024/02/03 11:35:34;;;;;;;3.83;2.27;;;10.20;99.90;;;;;;5037497;28;20551;-54
2024/02/03 11:38:07;;;;;;;1.60;0.67;;;10.30;99.90;;;;;;5040801;28;20183;-58
2024/02/03 11:40:41;;;;;;;2.27;0.50;;;10.30;99.90;;;;;;5036253;28;20211;-59
2024/02/03 11:43:06;;;;;;;1.00;0.80;;;10.30;99.90;;;;;;5012080;28;20282;-60
2024/02/03 11:45:34;;;;;;;2.63;0.80;;;10.30;99.90;;;;;;5005038;28;20231;-60
2024/02/03 11:48:02;;;;;;;0.50;0.50;;;10.40;99.90;;;;;;5015122;28;20195;-62
2024/02/03 11:50:28;;;;;;;1.47;0.60;;;10.30;99.90;;;;;;5037844;28;20196;-62
2024/02/03 11:52:54;;;;;;;1.10;0.57;;;10.40;99.90;;;;;;5013120;28;20282;-61
2024/02/03 11:55:21;;;;;;;0.63;0.40;;;10.30;99.90;;;;;;5042364;28;20183;-61
2024/02/03 11:57:46;;;;;;;2.93;0.90;;;10.30;99.90;;;;;;5052519;28;20628;-62
2024/02/03 12:00:14;;;;;;;0.90;0.50;;;10.40;99.90;;;;;;5052436;28;20230;-60
2024/02/03 12:02:39;;;;;;;0.97;0.50;;;10.40;99.90;;;;;;5027190;28;20546;-60
2024/02/03 12:05:05;;;;;;;0.57;0.53;;;10.40;99.90;;;;;;5044062;28;20183;-59
2024/02/03 12:07:31;;;;;;;0.73;0.47;;;10.50;99.90;;;;;;5031868;28;20230;-60
2024/02/03 12:09:57;;;;;;;0.30;0.30;;;10.50;99.90;;;;;;5033501;28;20758;-60
2024/02/03 12:12:26;;;;;;;3.60;0.70;;;10.50;99.90;;;;;;5045400;28;20179;-59
2024/02/03 12:14:52;;;;;;;0.83;0.50;;;10.40;99.90;;;;;;5035540;28;20184;-59
2024/02/03 12:17:17;;;;;;;0.80;0.50;;;10.30;99.90;;;;;;5013526;28;20188;-60
2024/02/03 12:19:43;;;;;;;1.10;0.60;;;10.40;99.90;;;;;;5031610;28;20556;-59
2024/02/03 12:22:09;;;;;;;4.17;1.30;;;10.50;99.90;;;;;;5034438;28;20619;-55
2024/02/03 12:24:34;;;;;;;0.80;0.60;;;10.50;99.90;;;;;;5029234;28;20206;-52
2024/02/03 12:27:00;;;;;;;1.03;0.60;;;10.50;99.90;;;;;;5026956;28;20260;-57
2024/02/03 12:29:26;;;;;;;1.30;0.80;;;10.50;99.90;;;;;;5026496;28;20256;-57
2024/02/03 12:31:51;;;;;;;2.30;0.90;;;10.50;99.90;;;;;;5035649;28;20175;-56
2024/02/03 12:34:17;;;;;;;1.13;0.70;;;10.50;99.90;;;;;;5035771;28;20559;-59
2024/02/03 12:36:42;;;;;;;2.60;0.90;;;10.50;99.90;;;;;;5043660;28;20261;-57
2024/02/03 12:39:10;;;;;;;1.33;0.70;;;10.50;99.90;;;;;;5009192;28;20216;-55
2024/02/03 12:41:35;;;;;;;2.43;0.90;;;10.60;99.90;;;;;;5051929;28;20179;-56
2024/02/03 12:44:01;;;;;;;0.70;0.43;;;10.50;99.90;;;;;;5035693;28;20290;-57
2024/02/03 12:46:26;;;;;;;1.63;0.80;;;10.50;99.90;;;;;;5024556;28;20214;-57
2024/02/03 12:48:52;;;;;;;1.50;1.10;;;10.40;99.90;;;;;;5035438;28;20215;-54
2024/02/03 12:51:18;;;;;;;0.90;0.70;;;10.30;99.90;;;;;;5031570;28;20192;-56